sensor_id;sensor_type;location;lat;lon;timestamp;P1;durP1;ratioP1;P2;durP2;ratioP2
14883;SDS011;7534;50.762;7.000;2023-12-29T00:00:43;2.93;;;1.40;;
14883;SDS011;7534;50.762;7.000;2023-12-29T00:03:09;2.90;;;1.23;;
14883;SDS011;7534;50.762;7.000;2023-12-29T00:05:35;3.13;;;1.40;;
14883;SDS011;7534;50.762;7.000;2023-12-29T00:08:01;1.93;;;1.30;;
14883;SDS011;7534;50.762;7.000;2023-12-29T00:10:27;2.67;;;1.57;;
14883;SDS011;7534;50.762;7.000;2023-12-29T00:12:53;3.27;;;1.40;;
14883;SDS011;7534;50.762;7.000;2023-12-29T00:15:19;1.50;;;1.40;;
14883;SDS011;7534;50.762;7.000;2023-12-29T00:17:45;2.87;;;1.30;;
14883;SDS011;7534;50.762;7.000;2023-12-29T00:20:11;2.87;;;1.60;;
14883;SDS011;7534;50.762;7.000;2023-12-29T00:22:37;2.97;;;1.40;;
14883;SDS011;7534;50.762;7.000;2023-12-29T00:25:03;3.23;;;1.70;;
14883;SDS011;7534;50.762;7.000;2023-12-29T00:27:30;2.37;;;1.30;;
14883;SDS011;7534;50.762;7.000;2023-12-29T00:29:56;3.63;;;1.70;;
14883;SDS011;7534;50.762;7.000;2023-12-29T00:32:21;1.80;;;1.50;;
14883;SDS011;7534;50.762;7.000;2023-12-29T00:34:47;2.87;;;1.33;;
14883;SDS011;7534;50.762;7.000;2023-12-29T00:37:13;3.20;;;1.70;;
14883;SDS011;7534;50.762;7.000;2023-12-29T00:39:39;4.50;;;1.77;;
14883;SDS011;7534;50.762;7.000;2023-12-29T00:42:05;2.67;;;1.63;;
14883;SDS011;7534;50.762;7.000;2023-12-29T00:44:31;2.33;;;1.40;;
14883;SDS011;7534;50.762;7.000;2023-12-29T00:46:57;4.93;;;1.70;;
14883;SDS011;7534;50.762;7.000;2023-12-29T00:49:24;3.43;;;1.63;;
14883;SDS011;7534;50.762;7.000;2023-12-29T00:51:49;3.33;;;1.87;;
14883;SDS011;7534;50.762;7.000;2023-12-29T00:54:15;3.23;;;1.50;;
14883;SDS011;7534;50.762;7.000;2023-12-29T00:56:41;4.40;;;1.70;;
14883;SDS011;7534;50.762;7.000;2023-12-29T00:59:06;3.40;;;1.73;;
14883;SDS011;7534;50.762;7.000;2023-12-29T01:01:34;4.07;;;2.00;;
14883;SDS011;7534;50.762;7.000;2023-12-29T01:04:00;4.43;;;1.97;;
14883;SDS011;7534;50.762;7.000;2023-12-29T01:06:26;4.30;;;1.93;;
14883;SDS011;7534;50.762;7.000;2023-12-29T01:08:52;4.40;;;1.70;;
14883;SDS011;7534;50.762;7.000;2023-12-29T01:11:17;4.43;;;1.73;;
14883;SDS011;7534;50.762;7.000;2023-12-29T01:13:43;2.63;;;1.70;;
14883;SDS011;7534;50.762;7.000;2023-12-29T01:16:09;3.77;;;1.80;;
14883;SDS011;7534;50.762;7.000;2023-12-29T01:18:35;2.87;;;1.70;;
14883;SDS011;7534;50.762;7.000;2023-12-29T01:21:01;4.33;;;1.80;;
14883;SDS011;7534;50.762;7.000;2023-12-29T01:23:27;3.53;;;1.93;;
14883;SDS011;7534;50.762;7.000;2023-12-29T01:25:52;3.00;;;1.60;;
14883;SDS011;7534;50.762;7.000;2023-12-29T01:28:18;4.93;;;1.80;;
14883;SDS011;7534;50.762;7.000;2023-12-29T01:30:44;3.90;;;2.10;;
14883;SDS011;7534;50.762;7.000;2023-12-29T01:33:09;3.23;;;1.60;;
14883;SDS011;7534;50.762;7.000;2023-12-29T01:35:35;4.03;;;1.70;;
14883;SDS011;7534;50.762;7.000;2023-12-29T01:38:02;4.43;;;1.70;;
14883;SDS011;7534;50.762;7.000;2023-12-29T01:40:28;2.90;;;1.80;;
14883;SDS011;7534;50.762;7.000;2023-12-29T01:42:54;3.03;;;1.67;;
14883;SDS011;7534;50.762;7.000;2023-12-29T01:45:20;3.43;;;1.90;;
14883;SDS011;7534;50.762;7.000;2023-12-29T01:47:48;5.70;;;2.10;;
14883;SDS011;7534;50.762;7.000;2023-12-29T01:50:15;4.33;;;1.70;;
14883;SDS011;7534;50.762;7.000;2023-12-29T01:52:45;3.53;;;1.80;;
14883;SDS011;7534;50.762;7.000;2023-12-29T01:55:14;6.30;;;2.60;;
14883;SDS011;7534;50.762;7.000;2023-12-29T01:57:44;5.03;;;2.10;;
14883;SDS011;7534;50.762;7.000;2023-12-29T02:00:11;3.77;;;2.10;;
14883;SDS011;7534;50.762;7.000;2023-12-29T02:02:38;5.60;;;2.10;;
14883;SDS011;7534;50.762;7.000;2023-12-29T02:05:05;6.33;;;1.70;;
14883;SDS011;7534;50.762;7.000;2023-12-29T02:07:31;3.93;;;2.00;;
14883;SDS011;7534;50.762;7.000;2023-12-29T02:09:58;5.57;;;2.47;;
14883;SDS011;7534;50.762;7.000;2023-12-29T02:12:24;4.27;;;1.80;;
14883;SDS011;7534;50.762;7.000;2023-12-29T02:14:50;3.93;;;1.83;;
14883;SDS011;7534;50.762;7.000;2023-12-29T02:19:48;4.63;;;2.00;;
14883;SDS011;7534;50.762;7.000;2023-12-29T02:22:18;7.30;;;1.80;;
14883;SDS011;7534;50.762;7.000;2023-12-29T02:24:45;5.27;;;1.90;;
14883;SDS011;7534;50.762;7.000;2023-12-29T02:33:00;6.10;;;1.73;;
14883;SDS011;7534;50.762;7.000;2023-12-29T02:35:32;5.13;;;1.80;;
14883;SDS011;7534;50.762;7.000;2023-12-29T02:38:09;3.23;;;1.70;;
14883;SDS011;7534;50.762;7.000;2023-12-29T02:40:36;4.37;;;2.10;;
14883;SDS011;7534;50.762;7.000;2023-12-29T02:43:02;4.67;;;1.80;;
14883;SDS011;7534;50.762;7.000;2023-12-29T02:45:27;3.67;;;1.90;;
14883;SDS011;7534;50.762;7.000;2023-12-29T02:47:53;3.77;;;1.70;;
14883;SDS011;7534;50.762;7.000;2023-12-29T02:50:19;3.17;;;1.70;;
14883;SDS011;7534;50.762;7.000;2023-12-29T02:52:45;4.33;;;1.93;;
14883;SDS011;7534;50.762;7.000;2023-12-29T02:55:12;3.37;;;1.60;;
14883;SDS011;7534;50.762;7.000;2023-12-29T02:57:38;3.77;;;1.90;;
14883;SDS011;7534;50.762;7.000;2023-12-29T03:00:04;3.83;;;1.90;;
14883;SDS011;7534;50.762;7.000;2023-12-29T03:02:31;5.07;;;2.10;;
14883;SDS011;7534;50.762;7.000;2023-12-29T03:04:57;3.30;;;1.67;;
14883;SDS011;7534;50.762;7.000;2023-12-29T03:07:23;4.00;;;1.60;;
14883;SDS011;7534;50.762;7.000;2023-12-29T03:09:49;6.30;;;2.03;;
14883;SDS011;7534;50.762;7.000;2023-12-29T03:12:15;4.67;;;1.80;;
14883;SDS011;7534;50.762;7.000;2023-12-29T03:14:40;4.27;;;1.60;;
14883;SDS011;7534;50.762;7.000;2023-12-29T03:17:06;5.10;;;2.00;;
14883;SDS011;7534;50.762;7.000;2023-12-29T03:19:32;4.17;;;1.80;;
14883;SDS011;7534;50.762;7.000;2023-12-29T03:21:58;2.70;;;1.70;;
14883;SDS011;7534;50.762;7.000;2023-12-29T03:24:24;4.27;;;1.90;;
14883;SDS011;7534;50.762;7.000;2023-12-29T03:26:49;3.80;;;1.60;;
14883;SDS011;7534;50.762;7.000;2023-12-29T03:29:15;4.37;;;1.60;;
14883;SDS011;7534;50.762;7.000;2023-12-29T03:31:41;4.27;;;1.97;;
14883;SDS011;7534;50.762;7.000;2023-12-29T03:34:06;4.40;;;1.80;;
14883;SDS011;7534;50.762;7.000;2023-12-29T03:36:32;2.40;;;1.40;;
14883;SDS011;7534;50.762;7.000;2023-12-29T03:38:58;3.97;;;1.60;;
14883;SDS011;7534;50.762;7.000;2023-12-29T03:41:27;4.33;;;1.80;;
14883;SDS011;7534;50.762;7.000;2023-12-29T03:43:53;3.47;;;1.60;;
14883;SDS011;7534;50.762;7.000;2023-12-29T03:46:22;4.33;;;1.87;;
14883;SDS011;7534;50.762;7.000;2023-12-29T03:48:48;3.90;;;1.70;;
14883;SDS011;7534;50.762;7.000;2023-12-29T03:51:14;9.23;;;2.47;;
14883;SDS011;7534;50.762;7.000;2023-12-29T03:53:41;3.00;;;1.50;;
14883;SDS011;7534;50.762;7.000;2023-12-29T03:56:17;2.70;;;1.50;;
14883;SDS011;7534;50.762;7.000;2023-12-29T03:58:44;3.70;;;1.60;;
14883;SDS011;7534;50.762;7.000;2023-12-29T04:01:10;5.03;;;1.80;;
14883;SDS011;7534;50.762;7.000;2023-12-29T04:03:40;5.93;;;1.60;;
14883;SDS011;7534;50.762;7.000;2023-12-29T04:06:07;3.90;;;1.57;;
14883;SDS011;7534;50.762;7.000;2023-12-29T04:08:33;3.33;;;1.43;;
14883;SDS011;7534;50.762;7.000;2023-12-29T04:11:00;4.97;;;1.70;;
14883;SDS011;7534;50.762;7.000;2023-12-29T04:13:26;3.73;;;1.50;;
14883;SDS011;7534;50.762;7.000;2023-12-29T04:15:52;4.40;;;1.63;;
14883;SDS011;7534;50.762;7.000;2023-12-29T04:18:21;5.23;;;1.70;;
14883;SDS011;7534;50.762;7.000;2023-12-29T04:20:48;4.33;;;1.90;;
14883;SDS011;7534;50.762;7.000;2023-12-29T04:23:14;3.40;;;1.50;;
14883;SDS011;7534;50.762;7.000;2023-12-29T04:25:39;4.10;;;1.73;;
14883;SDS011;7534;50.762;7.000;2023-12-29T04:28:06;4.00;;;1.80;;
14883;SDS011;7534;50.762;7.000;2023-12-29T04:30:32;3.63;;;1.60;;
14883;SDS011;7534;50.762;7.000;2023-12-29T04:32:59;3.37;;;1.70;;
14883;SDS011;7534;50.762;7.000;2023-12-29T04:35:25;3.70;;;1.50;;
14883;SDS011;7534;50.762;7.000;2023-12-29T04:37:50;2.33;;;1.80;;
14883;SDS011;7534;50.762;7.000;2023-12-29T04:40:17;5.07;;;1.80;;
14883;SDS011;7534;50.762;7.000;2023-12-29T04:42:43;4.23;;;1.57;;
14883;SDS011;7534;50.762;7.000;2023-12-29T04:45:09;3.80;;;1.70;;
14883;SDS011;7534;50.762;7.000;2023-12-29T04:47:35;4.67;;;1.70;;
14883;SDS011;7534;50.762;7.000;2023-12-29T04:50:01;3.20;;;1.53;;
14883;SDS011;7534;50.762;7.000;2023-12-29T04:52:27;3.10;;;1.50;;
14883;SDS011;7534;50.762;7.000;2023-12-29T04:54:53;4.37;;;1.70;;
14883;SDS011;7534;50.762;7.000;2023-12-29T04:57:18;5.30;;;1.73;;
14883;SDS011;7534;50.762;7.000;2023-12-29T04:59:44;3.03;;;1.67;;
14883;SDS011;7534;50.762;7.000;2023-12-29T05:02:10;2.67;;;1.30;;
14883;SDS011;7534;50.762;7.000;2023-12-29T05:04:36;3.30;;;1.60;;
14883;SDS011;7534;50.762;7.000;2023-12-29T05:07:04;2.93;;;1.63;;
14883;SDS011;7534;50.762;7.000;2023-12-29T05:09:30;3.60;;;1.60;;
14883;SDS011;7534;50.762;7.000;2023-12-29T05:11:56;5.40;;;1.57;;
14883;SDS011;7534;50.762;7.000;2023-12-29T05:14:22;4.70;;;1.73;;
14883;SDS011;7534;50.762;7.000;2023-12-29T05:16:47;6.13;;;1.60;;
14883;SDS011;7534;50.762;7.000;2023-12-29T05:19:13;3.60;;;1.50;;
14883;SDS011;7534;50.762;7.000;2023-12-29T05:21:39;3.03;;;1.57;;
14883;SDS011;7534;50.762;7.000;2023-12-29T05:24:04;4.87;;;1.57;;
14883;SDS011;7534;50.762;7.000;2023-12-29T05:26:33;3.80;;;1.60;;
14883;SDS011;7534;50.762;7.000;2023-12-29T05:28:59;3.30;;;1.40;;
14883;SDS011;7534;50.762;7.000;2023-12-29T05:31:25;4.27;;;1.63;;
14883;SDS011;7534;50.762;7.000;2023-12-29T05:33:50;3.90;;;1.43;;
14883;SDS011;7534;50.762;7.000;2023-12-29T05:36:16;3.27;;;1.60;;
14883;SDS011;7534;50.762;7.000;2023-12-29T05:38:43;3.37;;;1.60;;
14883;SDS011;7534;50.762;7.000;2023-12-29T05:41:12;3.17;;;1.60;;
14883;SDS011;7534;50.762;7.000;2023-12-29T05:43:38;3.93;;;1.70;;
14883;SDS011;7534;50.762;7.000;2023-12-29T05:46:08;3.73;;;1.60;;
14883;SDS011;7534;50.762;7.000;2023-12-29T05:48:38;4.17;;;1.60;;
14883;SDS011;7534;50.762;7.000;2023-12-29T05:51:08;3.07;;;1.70;;
14883;SDS011;7534;50.762;7.000;2023-12-29T05:53:35;4.50;;;1.40;;
14883;SDS011;7534;50.762;7.000;2023-12-29T05:56:02;3.40;;;1.60;;
14883;SDS011;7534;50.762;7.000;2023-12-29T05:58:28;3.83;;;1.50;;
14883;SDS011;7534;50.762;7.000;2023-12-29T06:00:57;7.60;;;2.00;;
14883;SDS011;7534;50.762;7.000;2023-12-29T06:03:23;3.00;;;1.60;;
14883;SDS011;7534;50.762;7.000;2023-12-29T06:05:49;1.90;;;1.13;;
14883;SDS011;7534;50.762;7.000;2023-12-29T06:08:15;3.90;;;1.50;;
14883;SDS011;7534;50.762;7.000;2023-12-29T06:10:40;4.53;;;1.87;;
14883;SDS011;7534;50.762;7.000;2023-12-29T06:13:06;4.23;;;1.60;;
14883;SDS011;7534;50.762;7.000;2023-12-29T06:15:32;3.17;;;1.50;;
14883;SDS011;7534;50.762;7.000;2023-12-29T06:17:58;3.57;;;1.43;;
14883;SDS011;7534;50.762;7.000;2023-12-29T06:20:24;3.50;;;1.60;;
14883;SDS011;7534;50.762;7.000;2023-12-29T06:22:50;2.73;;;1.60;;
14883;SDS011;7534;50.762;7.000;2023-12-29T06:25:15;4.07;;;1.73;;
14883;SDS011;7534;50.762;7.000;2023-12-29T06:27:41;3.00;;;1.63;;
14883;SDS011;7534;50.762;7.000;2023-12-29T06:30:07;2.90;;;1.80;;
14883;SDS011;7534;50.762;7.000;2023-12-29T06:32:34;2.77;;;1.40;;
14883;SDS011;7534;50.762;7.000;2023-12-29T06:34:59;5.73;;;1.73;;
14883;SDS011;7534;50.762;7.000;2023-12-29T06:37:25;5.47;;;1.77;;
14883;SDS011;7534;50.762;7.000;2023-12-29T06:39:51;2.40;;;1.33;;
14883;SDS011;7534;50.762;7.000;2023-12-29T06:42:17;3.67;;;1.30;;
14883;SDS011;7534;50.762;7.000;2023-12-29T06:44:42;3.97;;;1.60;;
14883;SDS011;7534;50.762;7.000;2023-12-29T06:47:08;3.57;;;1.67;;
14883;SDS011;7534;50.762;7.000;2023-12-29T06:49:34;2.50;;;1.30;;
14883;SDS011;7534;50.762;7.000;2023-12-29T06:52:00;3.67;;;1.40;;
14883;SDS011;7534;50.762;7.000;2023-12-29T06:54:26;4.60;;;1.37;;
14883;SDS011;7534;50.762;7.000;2023-12-29T06:56:52;3.83;;;1.50;;
14883;SDS011;7534;50.762;7.000;2023-12-29T06:59:18;2.43;;;1.20;;
14883;SDS011;7534;50.762;7.000;2023-12-29T07:01:45;1.70;;;1.20;;
14883;SDS011;7534;50.762;7.000;2023-12-29T07:04:11;3.57;;;1.50;;
14883;SDS011;7534;50.762;7.000;2023-12-29T07:06:38;3.07;;;1.60;;
14883;SDS011;7534;50.762;7.000;2023-12-29T07:09:04;3.60;;;1.20;;
14883;SDS011;7534;50.762;7.000;2023-12-29T07:11:30;3.67;;;1.43;;
14883;SDS011;7534;50.762;7.000;2023-12-29T07:13:56;2.43;;;1.43;;
14883;SDS011;7534;50.762;7.000;2023-12-29T07:16:22;2.50;;;1.50;;
14883;SDS011;7534;50.762;7.000;2023-12-29T07:18:47;2.30;;;1.60;;
14883;SDS011;7534;50.762;7.000;2023-12-29T07:21:14;3.57;;;1.67;;
14883;SDS011;7534;50.762;7.000;2023-12-29T07:23:41;2.50;;;1.30;;
14883;SDS011;7534;50.762;7.000;2023-12-29T07:26:07;1.47;;;1.10;;
14883;SDS011;7534;50.762;7.000;2023-12-29T07:28:33;2.03;;;1.30;;
14883;SDS011;7534;50.762;7.000;2023-12-29T07:30:59;1.90;;;1.10;;
14883;SDS011;7534;50.762;7.000;2023-12-29T07:33:25;2.70;;;1.27;;
14883;SDS011;7534;50.762;7.000;2023-12-29T07:35:51;2.23;;;1.10;;
14883;SDS011;7534;50.762;7.000;2023-12-29T07:38:16;2.15;;;1.20;;
14883;SDS011;7534;50.762;7.000;2023-12-29T07:40:43;2.97;;;1.70;;
14883;SDS011;7534;50.762;7.000;2023-12-29T07:43:08;2.50;;;1.50;;
14883;SDS011;7534;50.762;7.000;2023-12-29T07:45:34;3.03;;;1.63;;
14883;SDS011;7534;50.762;7.000;2023-12-29T07:48:02;2.27;;;1.20;;
14883;SDS011;7534;50.762;7.000;2023-12-29T07:50:28;1.30;;;1.20;;
14883;SDS011;7534;50.762;7.000;2023-12-29T07:52:54;1.97;;;1.40;;
14883;SDS011;7534;50.762;7.000;2023-12-29T07:55:20;2.77;;;1.20;;
14883;SDS011;7534;50.762;7.000;2023-12-29T07:57:46;3.00;;;1.50;;
14883;SDS011;7534;50.762;7.000;2023-12-29T08:00:12;3.27;;;1.20;;
14883;SDS011;7534;50.762;7.000;2023-12-29T08:02:40;2.77;;;1.40;;
14883;SDS011;7534;50.762;7.000;2023-12-29T08:05:05;2.97;;;1.20;;
14883;SDS011;7534;50.762;7.000;2023-12-29T08:07:33;3.63;;;1.20;;
14883;SDS011;7534;50.762;7.000;2023-12-29T08:10:05;3.33;;;1.73;;
14883;SDS011;7534;50.762;7.000;2023-12-29T08:12:32;2.83;;;1.13;;
14883;SDS011;7534;50.762;7.000;2023-12-29T08:14:59;2.80;;;1.27;;
14883;SDS011;7534;50.762;7.000;2023-12-29T08:17:25;3.07;;;1.30;;
14883;SDS011;7534;50.762;7.000;2023-12-29T08:19:52;3.00;;;1.20;;
14883;SDS011;7534;50.762;7.000;2023-12-29T08:22:19;1.63;;;1.20;;
14883;SDS011;7534;50.762;7.000;2023-12-29T08:24:45;3.37;;;1.37;;
14883;SDS011;7534;50.762;7.000;2023-12-29T08:27:14;3.90;;;1.40;;
14883;SDS011;7534;50.762;7.000;2023-12-29T08:29:40;3.07;;;1.30;;
14883;SDS011;7534;50.762;7.000;2023-12-29T08:32:06;3.67;;;1.67;;
14883;SDS011;7534;50.762;7.000;2023-12-29T08:34:32;3.53;;;1.47;;
14883;SDS011;7534;50.762;7.000;2023-12-29T08:36:59;2.27;;;1.20;;
14883;SDS011;7534;50.762;7.000;2023-12-29T08:39:25;3.13;;;1.53;;
14883;SDS011;7534;50.762;7.000;2023-12-29T08:41:52;1.55;;;1.20;;
14883;SDS011;7534;50.762;7.000;2023-12-29T08:44:19;2.13;;;1.30;;
14883;SDS011;7534;50.762;7.000;2023-12-29T08:46:44;2.75;;;1.40;;
14883;SDS011;7534;50.762;7.000;2023-12-29T08:49:10;3.07;;;1.33;;
14883;SDS011;7534;50.762;7.000;2023-12-29T08:51:36;3.23;;;1.30;;
14883;SDS011;7534;50.762;7.000;2023-12-29T08:54:01;3.00;;;1.63;;
14883;SDS011;7534;50.762;7.000;2023-12-29T08:56:27;2.37;;;1.40;;
14883;SDS011;7534;50.762;7.000;2023-12-29T08:58:54;3.33;;;1.20;;
14883;SDS011;7534;50.762;7.000;2023-12-29T09:01:20;2.33;;;1.33;;
14883;SDS011;7534;50.762;7.000;2023-12-29T09:03:46;2.17;;;1.30;;
14883;SDS011;7534;50.762;7.000;2023-12-29T09:06:11;3.83;;;1.30;;
14883;SDS011;7534;50.762;7.000;2023-12-29T09:08:37;2.73;;;1.17;;
14883;SDS011;7534;50.762;7.000;2023-12-29T09:11:03;2.20;;;1.27;;
14883;SDS011;7534;50.762;7.000;2023-12-29T09:13:29;1.40;;;1.10;;
14883;SDS011;7534;50.762;7.000;2023-12-29T09:15:55;1.97;;;1.00;;
14883;SDS011;7534;50.762;7.000;2023-12-29T09:18:21;2.53;;;1.10;;
14883;SDS011;7534;50.762;7.000;2023-12-29T09:20:47;2.47;;;1.20;;
14883;SDS011;7534;50.762;7.000;2023-12-29T09:23:13;1.77;;;1.53;;
14883;SDS011;7534;50.762;7.000;2023-12-29T09:25:40;2.13;;;0.97;;
14883;SDS011;7534;50.762;7.000;2023-12-29T09:28:06;2.87;;;1.27;;
14883;SDS011;7534;50.762;7.000;2023-12-29T09:30:32;1.80;;;1.10;;
14883;SDS011;7534;50.762;7.000;2023-12-29T09:32:58;2.43;;;1.07;;
14883;SDS011;7534;50.762;7.000;2023-12-29T09:35:24;2.13;;;1.13;;
14883;SDS011;7534;50.762;7.000;2023-12-29T09:37:50;0.93;;;0.90;;
14883;SDS011;7534;50.762;7.000;2023-12-29T09:40:16;2.50;;;1.07;;
14883;SDS011;7534;50.762;7.000;2023-12-29T09:42:44;1.33;;;0.93;;
14883;SDS011;7534;50.762;7.000;2023-12-29T09:45:13;2.30;;;1.10;;
14883;SDS011;7534;50.762;7.000;2023-12-29T09:47:41;1.37;;;0.90;;
14883;SDS011;7534;50.762;7.000;2023-12-29T09:50:11;1.37;;;0.87;;
14883;SDS011;7534;50.762;7.000;2023-12-29T09:52:41;1.30;;;1.00;;
14883;SDS011;7534;50.762;7.000;2023-12-29T09:55:09;1.53;;;0.80;;
14883;SDS011;7534;50.762;7.000;2023-12-29T09:57:39;1.30;;;0.90;;
14883;SDS011;7534;50.762;7.000;2023-12-29T10:00:06;0.97;;;0.93;;
14883;SDS011;7534;50.762;7.000;2023-12-29T10:02:37;0.60;;;0.60;;
14883;SDS011;7534;50.762;7.000;2023-12-29T10:05:03;1.70;;;0.83;;
14883;SDS011;7534;50.762;7.000;2023-12-29T10:07:31;1.87;;;0.80;;
14883;SDS011;7534;50.762;7.000;2023-12-29T10:10:02;1.27;;;0.90;;
14883;SDS011;7534;50.762;7.000;2023-12-29T10:12:31;1.00;;;0.90;;
14883;SDS011;7534;50.762;7.000;2023-12-29T10:25:34;1.40;;;1.00;;
14883;SDS011;7534;50.762;7.000;2023-12-29T10:28:01;0.80;;;0.80;;
14883;SDS011;7534;50.762;7.000;2023-12-29T10:30:27;1.93;;;0.90;;
14883;SDS011;7534;50.762;7.000;2023-12-29T10:32:55;1.73;;;1.03;;
14883;SDS011;7534;50.762;7.000;2023-12-29T10:35:21;1.73;;;0.87;;
14883;SDS011;7534;50.762;7.000;2023-12-29T10:37:47;1.70;;;0.90;;
14883;SDS011;7534;50.762;7.000;2023-12-29T10:40:19;2.42;;;1.10;;
14883;SDS011;7534;50.762;7.000;2023-12-29T10:42:51;1.20;;;1.10;;
14883;SDS011;7534;50.762;7.000;2023-12-29T10:45:22;1.50;;;1.00;;
14883;SDS011;7534;50.762;7.000;2023-12-29T10:47:49;2.53;;;1.03;;
14883;SDS011;7534;50.762;7.000;2023-12-29T10:50:16;3.70;;;1.30;;
14883;SDS011;7534;50.762;7.000;2023-12-29T10:52:41;1.63;;;0.90;;
14883;SDS011;7534;50.762;7.000;2023-12-29T10:55:08;1.07;;;0.80;;
14883;SDS011;7534;50.762;7.000;2023-12-29T10:57:38;0.93;;;0.83;;
14883;SDS011;7534;50.762;7.000;2023-12-29T11:00:05;1.00;;;0.90;;
14883;SDS011;7534;50.762;7.000;2023-12-29T11:02:32;0.70;;;0.70;;
14883;SDS011;7534;50.762;7.000;2023-12-29T11:05:06;0.73;;;0.73;;
14883;SDS011;7534;50.762;7.000;2023-12-29T11:07:38;0.93;;;0.80;;
14883;SDS011;7534;50.762;7.000;2023-12-29T11:10:06;1.20;;;0.90;;
14883;SDS011;7534;50.762;7.000;2023-12-29T11:12:35;1.40;;;0.80;;
14883;SDS011;7534;50.762;7.000;2023-12-29T11:15:06;1.13;;;0.80;;
14883;SDS011;7534;50.762;7.000;2023-12-29T11:17:34;0.93;;;0.70;;
14883;SDS011;7534;50.762;7.000;2023-12-29T11:20:01;0.70;;;0.70;;
14883;SDS011;7534;50.762;7.000;2023-12-29T11:22:30;0.80;;;0.80;;
14883;SDS011;7534;50.762;7.000;2023-12-29T11:24:57;0.67;;;0.67;;
14883;SDS011;7534;50.762;7.000;2023-12-29T11:27:27;1.27;;;1.17;;
14883;SDS011;7534;50.762;7.000;2023-12-29T11:29:59;0.70;;;0.70;;
14883;SDS011;7534;50.762;7.000;2023-12-29T11:32:32;1.40;;;0.90;;
14883;SDS011;7534;50.762;7.000;2023-12-29T11:35:39;0.83;;;0.63;;
14883;SDS011;7534;50.762;7.000;2023-12-29T11:44:00;1.27;;;0.70;;
14883;SDS011;7534;50.762;7.000;2023-12-29T11:46:33;0.60;;;0.60;;
14883;SDS011;7534;50.762;7.000;2023-12-29T11:49:08;0.67;;;0.60;;
14883;SDS011;7534;50.762;7.000;2023-12-29T11:54:04;0.77;;;0.70;;
14883;SDS011;7534;50.762;7.000;2023-12-29T11:56:35;0.50;;;0.50;;
14883;SDS011;7534;50.762;7.000;2023-12-29T11:59:12;0.80;;;0.80;;
14883;SDS011;7534;50.762;7.000;2023-12-29T12:01:48;0.77;;;0.77;;
14883;SDS011;7534;50.762;7.000;2023-12-29T12:07:12;0.80;;;0.80;;
14883;SDS011;7534;50.762;7.000;2023-12-29T12:09:42;0.70;;;0.70;;
14883;SDS011;7534;50.762;7.000;2023-12-29T12:12:08;1.03;;;0.70;;
14883;SDS011;7534;50.762;7.000;2023-12-29T12:14:49;0.50;;;0.50;;
14883;SDS011;7534;50.762;7.000;2023-12-29T12:17:32;0.70;;;0.70;;
14883;SDS011;7534;50.762;7.000;2023-12-29T12:20:03;0.83;;;0.80;;
14883;SDS011;7534;50.762;7.000;2023-12-29T12:22:36;0.80;;;0.80;;
14883;SDS011;7534;50.762;7.000;2023-12-29T12:25:02;0.67;;;0.67;;
14883;SDS011;7534;50.762;7.000;2023-12-29T12:27:29;1.48;;;0.80;;
14883;SDS011;7534;50.762;7.000;2023-12-29T12:29:57;0.90;;;0.90;;
14883;SDS011;7534;50.762;7.000;2023-12-29T12:32:29;2.47;;;0.80;;
14883;SDS011;7534;50.762;7.000;2023-12-29T12:34:56;0.60;;;0.60;;
14883;SDS011;7534;50.762;7.000;2023-12-29T12:37:22;0.80;;;0.80;;
14883;SDS011;7534;50.762;7.000;2023-12-29T12:39:53;1.73;;;0.80;;
14883;SDS011;7534;50.762;7.000;2023-12-29T12:42:19;0.70;;;0.70;;
14883;SDS011;7534;50.762;7.000;2023-12-29T12:44:54;0.80;;;0.80;;
14883;SDS011;7534;50.762;7.000;2023-12-29T12:47:26;0.70;;;0.70;;
14883;SDS011;7534;50.762;7.000;2023-12-29T12:50:00;0.93;;;0.90;;
14883;SDS011;7534;50.762;7.000;2023-12-29T12:52:29;0.70;;;0.70;;
14883;SDS011;7534;50.762;7.000;2023-12-29T12:54:57;0.83;;;0.83;;
14883;SDS011;7534;50.762;7.000;2023-12-29T12:57:23;1.00;;;0.90;;
14883;SDS011;7534;50.762;7.000;2023-12-29T12:59:49;0.73;;;0.73;;
14883;SDS011;7534;50.762;7.000;2023-12-29T13:02:17;1.03;;;0.90;;
14883;SDS011;7534;50.762;7.000;2023-12-29T13:04:45;0.87;;;0.80;;
14883;SDS011;7534;50.762;7.000;2023-12-29T13:07:11;0.70;;;0.70;;
14883;SDS011;7534;50.762;7.000;2023-12-29T13:09:41;0.90;;;0.90;;
14883;SDS011;7534;50.762;7.000;2023-12-29T13:12:10;1.17;;;0.80;;
14883;SDS011;7534;50.762;7.000;2023-12-29T13:14:38;0.70;;;0.67;;
14883;SDS011;7534;50.762;7.000;2023-12-29T13:17:11;0.87;;;0.80;;
14883;SDS011;7534;50.762;7.000;2023-12-29T13:19:39;1.63;;;0.70;;
14883;SDS011;7534;50.762;7.000;2023-12-29T13:22:09;1.00;;;0.70;;
14883;SDS011;7534;50.762;7.000;2023-12-29T13:24:46;0.83;;;0.83;;
14883;SDS011;7534;50.762;7.000;2023-12-29T13:27:12;0.83;;;0.83;;
14883;SDS011;7534;50.762;7.000;2023-12-29T13:29:40;0.70;;;0.70;;
14883;SDS011;7534;50.762;7.000;2023-12-29T13:32:10;1.03;;;0.70;;
14883;SDS011;7534;50.762;7.000;2023-12-29T13:37:42;1.33;;;0.90;;
14883;SDS011;7534;50.762;7.000;2023-12-29T13:42:56;1.23;;;1.07;;
14883;SDS011;7534;50.762;7.000;2023-12-29T13:45:25;0.90;;;0.70;;
14883;SDS011;7534;50.762;7.000;2023-12-29T13:47:52;0.80;;;0.80;;
14883;SDS011;7534;50.762;7.000;2023-12-29T13:50:20;0.83;;;0.83;;
14883;SDS011;7534;50.762;7.000;2023-12-29T13:52:47;0.80;;;0.80;;
14883;SDS011;7534;50.762;7.000;2023-12-29T13:55:20;0.90;;;0.90;;
14883;SDS011;7534;50.762;7.000;2023-12-29T13:57:50;0.70;;;0.70;;
14883;SDS011;7534;50.762;7.000;2023-12-29T14:00:17;0.87;;;0.70;;
14883;SDS011;7534;50.762;7.000;2023-12-29T14:02:48;0.80;;;0.80;;
14883;SDS011;7534;50.762;7.000;2023-12-29T14:05:28;1.00;;;0.80;;
14883;SDS011;7534;50.762;7.000;2023-12-29T14:08:46;1.13;;;0.80;;
14883;SDS011;7534;50.762;7.000;2023-12-29T14:11:10;0.70;;;0.70;;
14883;SDS011;7534;50.762;7.000;2023-12-29T14:13:45;0.80;;;0.80;;
14883;SDS011;7534;50.762;7.000;2023-12-29T14:16:13;0.80;;;0.80;;
14883;SDS011;7534;50.762;7.000;2023-12-29T14:21:28;0.80;;;0.80;;
14883;SDS011;7534;50.762;7.000;2023-12-29T14:24:14;1.80;;;0.80;;
14883;SDS011;7534;50.762;7.000;2023-12-29T14:27:02;1.73;;;0.77;;
14883;SDS011;7534;50.762;7.000;2023-12-29T14:29:28;1.67;;;0.70;;
14883;SDS011;7534;50.762;7.000;2023-12-29T14:31:53;0.60;;;0.60;;
14883;SDS011;7534;50.762;7.000;2023-12-29T14:34:21;0.80;;;0.80;;
14883;SDS011;7534;50.762;7.000;2023-12-29T14:36:47;0.80;;;0.80;;
14883;SDS011;7534;50.762;7.000;2023-12-29T14:39:13;0.53;;;0.53;;
14883;SDS011;7534;50.762;7.000;2023-12-29T14:41:40;0.83;;;0.80;;
14883;SDS011;7534;50.762;7.000;2023-12-29T14:44:07;1.00;;;0.90;;
14883;SDS011;7534;50.762;7.000;2023-12-29T14:46:33;0.80;;;0.80;;
14883;SDS011;7534;50.762;7.000;2023-12-29T14:49:01;0.73;;;0.73;;
14883;SDS011;7534;50.762;7.000;2023-12-29T14:51:27;1.27;;;0.87;;
14883;SDS011;7534;50.762;7.000;2023-12-29T14:53:53;0.70;;;0.70;;
14883;SDS011;7534;50.762;7.000;2023-12-29T14:56:19;0.80;;;0.80;;
14883;SDS011;7534;50.762;7.000;2023-12-29T14:58:45;0.70;;;0.70;;
14883;SDS011;7534;50.762;7.000;2023-12-29T15:01:11;0.77;;;0.77;;
14883;SDS011;7534;50.762;7.000;2023-12-29T15:03:37;0.77;;;0.70;;
14883;SDS011;7534;50.762;7.000;2023-12-29T15:06:03;0.93;;;0.60;;
14883;SDS011;7534;50.762;7.000;2023-12-29T15:08:29;0.60;;;0.60;;
14883;SDS011;7534;50.762;7.000;2023-12-29T15:11:00;0.73;;;0.60;;
14883;SDS011;7534;50.762;7.000;2023-12-29T15:13:27;0.97;;;0.60;;
14883;SDS011;7534;50.762;7.000;2023-12-29T15:15:55;1.80;;;0.80;;
14883;SDS011;7534;50.762;7.000;2023-12-29T15:18:22;0.80;;;0.80;;
14883;SDS011;7534;50.762;7.000;2023-12-29T15:20:48;1.23;;;0.80;;
14883;SDS011;7534;50.762;7.000;2023-12-29T15:23:14;1.10;;;0.80;;
14883;SDS011;7534;50.762;7.000;2023-12-29T15:25:40;2.30;;;1.27;;
14883;SDS011;7534;50.762;7.000;2023-12-29T15:28:07;1.00;;;1.00;;
14883;SDS011;7534;50.762;7.000;2023-12-29T15:30:35;1.63;;;1.20;;
14883;SDS011;7534;50.762;7.000;2023-12-29T15:33:01;1.70;;;1.60;;
14883;SDS011;7534;50.762;7.000;2023-12-29T15:35:27;1.07;;;0.93;;
14883;SDS011;7534;50.762;7.000;2023-12-29T15:37:54;1.60;;;1.50;;
14883;SDS011;7534;50.762;7.000;2023-12-29T15:40:20;2.97;;;2.30;;